createdAt,value
2022-07-25T00:02:15.118Z,19.50
2022-07-25T00:04:44.141Z,19.40
2022-07-25T00:07:12.343Z,19.50
2022-07-25T00:09:40.249Z,19.70
2022-07-25T00:12:08.541Z,19.30
2022-07-25T00:14:40.609Z,19.10
2022-07-25T00:17:08.490Z,19.20
2022-07-25T00:19:36.380Z,19.30
2022-07-25T00:22:04.279Z,19.20
2022-07-25T00:24:32.355Z,19.30
2022-07-25T00:27:00.333Z,19.20
2022-07-25T00:29:28.160Z,19.30
2022-07-25T00:31:57.397Z,19.20
2022-07-25T00:34:25.227Z,19.10
2022-07-25T00:36:53.879Z,19.10
2022-07-25T00:39:21.771Z,19.00
2022-07-25T00:41:49.615Z,18.90
2022-07-25T00:44:25.190Z,18.70
2022-07-25T00:46:54.119Z,18.70
2022-07-25T00:49:23.946Z,19.00
2022-07-25T00:51:52.858Z,19.10
2022-07-25T00:54:21.227Z,19.00
2022-07-25T00:56:49.839Z,18.80
2022-07-25T00:59:17.796Z,19.20
2022-07-25T01:01:48.295Z,19.00
2022-07-25T01:04:17.601Z,18.70
2022-07-25T01:06:46.988Z,18.50
2022-07-25T01:09:15.330Z,18.60
2022-07-25T01:11:43.582Z,18.50
2022-07-25T01:14:11.602Z,18.60
2022-07-25T01:16:41.190Z,18.70
2022-07-25T01:19:09.123Z,18.60
2022-07-25T01:21:41.379Z,18.40
2022-07-25T01:24:10.302Z,18.60
2022-07-25T01:26:38.716Z,18.50
2022-07-25T01:29:06.998Z,18.80
2022-07-25T01:31:35.076Z,18.70
2022-07-25T01:34:03.433Z,18.80
2022-07-25T01:36:31.786Z,18.60
2022-07-25T01:39:01.131Z,18.60
2022-07-25T01:41:28.981Z,18.70
2022-07-25T01:43:56.909Z,18.70
2022-07-25T01:46:24.841Z,18.50
2022-07-25T01:48:53.053Z,18.40
2022-07-25T01:51:21.210Z,18.10
2022-07-25T01:53:49.608Z,18.30
2022-07-25T01:56:19.422Z,18.20
2022-07-25T01:58:50.564Z,18.10
2022-07-25T02:01:19.393Z,18.30
2022-07-25T02:03:49.989Z,18.60
2022-07-25T02:06:20.895Z,18.20
2022-07-25T02:08:48.882Z,18.00
2022-07-25T02:11:19.165Z,18.10
2022-07-25T02:13:47.798Z,17.90
2022-07-25T02:16:15.690Z,17.80
2022-07-25T02:18:43.577Z,18.30
2022-07-25T02:21:14.250Z,18.20
2022-07-25T02:23:43.017Z,18.00
2022-07-25T02:26:10.910Z,17.90
2022-07-25T02:28:40.783Z,18.00
2022-07-25T02:31:09.141Z,17.80
2022-07-25T02:33:37.610Z,17.70
2022-07-25T02:36:05.780Z,17.70
2022-07-25T02:38:33.701Z,18.00
2022-07-25T02:41:01.671Z,17.80
2022-07-25T02:43:29.574Z,17.90
2022-07-25T02:45:58.909Z,18.20
2022-07-25T02:48:26.970Z,18.10
2022-07-25T02:50:54.895Z,17.90
2022-07-25T02:53:46.735Z,18.40
2022-07-25T02:56:10.792Z,18.10
2022-07-25T02:58:39.376Z,18.20
2022-07-25T03:01:09.365Z,17.70
2022-07-25T03:03:37.361Z,17.80
2022-07-25T03:06:05.644Z,17.60
2022-07-25T03:08:33.587Z,17.80
2022-07-25T03:11:01.427Z,17.60
2022-07-25T03:13:29.312Z,17.60
2022-07-25T03:15:57.157Z,17.40
2022-07-25T03:18:26.379Z,17.30
2022-07-25T03:20:54.375Z,17.70
2022-07-25T03:23:22.482Z,18.00
2022-07-25T03:25:50.362Z,17.90
2022-07-25T03:28:18.285Z,17.90
2022-07-25T03:30:46.211Z,18.30
2022-07-25T03:33:14.146Z,18.00
2022-07-25T03:35:43.410Z,18.50
2022-07-25T03:38:11.321Z,18.50
2022-07-25T03:40:39.604Z,18.00
2022-07-25T03:43:07.531Z,18.00
2022-07-25T03:45:35.912Z,17.90
2022-07-25T03:48:04.002Z,17.90
2022-07-25T03:50:32.039Z,17.90
2022-07-25T03:53:11.006Z,17.80
2022-07-25T03:55:39.600Z,17.90
2022-07-25T03:58:07.587Z,18.60
2022-07-25T04:00:35.489Z,18.50
2022-07-25T04:03:03.727Z,18.90
2022-07-25T04:05:31.658Z,18.60
2022-07-25T04:08:01.083Z,18.20
2022-07-25T04:10:28.969Z,18.20
2022-07-25T04:12:56.811Z,18.30
2022-07-25T04:15:24.798Z,18.70
2022-07-25T04:17:52.665Z,19.40
2022-07-25T04:20:21.980Z,20.00
2022-07-25T04:22:50.245Z,20.10
2022-07-25T04:25:19.473Z,20.40
2022-07-25T04:27:47.324Z,20.40
2022-07-25T04:30:24.092Z,21.20
2022-07-25T04:32:52.718Z,21.60
2022-07-25T04:35:20.708Z,21.80
2022-07-25T04:37:48.586Z,21.90
2022-07-25T04:40:16.642Z,22.00
2022-07-25T04:42:45.942Z,22.10
2022-07-25T04:45:17.819Z,22.00
2022-07-25T04:47:46.025Z,22.20
2022-07-25T04:50:14.767Z,22.70
2022-07-25T04:52:42.652Z,22.40
2022-07-25T04:55:11.206Z,22.80
2022-07-25T04:57:39.173Z,23.00
2022-07-25T05:00:11.102Z,22.60
2022-07-25T05:02:39.097Z,23.00
2022-07-25T05:05:08.545Z,23.50
2022-07-25T05:07:49.147Z,23.60
2022-07-25T05:10:17.041Z,23.50
2022-07-25T05:12:44.988Z,23.40
2022-07-25T05:15:14.676Z,24.10
2022-07-25T05:17:42.788Z,24.30
2022-07-25T05:20:12.245Z,24.80
2022-07-25T05:22:40.158Z,25.60
2022-07-25T05:25:09.804Z,25.90
2022-07-25T05:27:38.294Z,26.10
2022-07-25T05:30:08.174Z,26.40
2022-07-25T05:32:37.530Z,26.40
2022-07-25T05:35:07.940Z,26.40
2022-07-25T05:37:39.463Z,26.70
2022-07-25T05:40:08.854Z,26.60
2022-07-25T05:42:36.891Z,26.10
2022-07-25T05:45:05.507Z,25.60
2022-07-25T05:47:33.393Z,25.70
2022-07-25T05:50:03.523Z,25.80
2022-07-25T05:52:31.444Z,26.00
2022-07-25T05:54:59.355Z,26.50
2022-07-25T05:57:27.564Z,27.20
2022-07-25T05:59:55.493Z,27.20
2022-07-25T06:02:23.566Z,27.40
2022-07-25T06:04:51.610Z,26.60
2022-07-25T06:07:20.843Z,26.20
2022-07-25T06:09:48.710Z,26.50
2022-07-25T06:12:16.588Z,26.60
2022-07-25T06:14:45.362Z,26.70
2022-07-25T06:17:13.521Z,26.50
2022-07-25T06:19:41.429Z,26.80
2022-07-25T06:22:09.578Z,27.40
2022-07-25T06:24:38.902Z,27.40
2022-07-25T06:27:08.090Z,28.20
2022-07-25T06:29:36.243Z,28.40
2022-07-25T06:32:04.152Z,28.40
2022-07-25T06:34:32.055Z,28.10
2022-07-25T06:36:59.987Z,28.30
2022-07-25T06:39:28.603Z,28.10
2022-07-25T06:41:59.671Z,28.50
2022-07-25T06:44:27.643Z,28.90
2022-07-25T06:46:55.571Z,29.00
2022-07-25T06:49:23.461Z,29.50
2022-07-25T06:51:51.345Z,29.90
2022-07-25T06:54:19.228Z,30.40
2022-07-25T06:56:47.565Z,31.00
2022-07-25T06:59:16.821Z,30.80
2022-07-25T07:02:00.029Z,30.80
2022-07-25T07:04:27.872Z,30.90
2022-07-25T07:06:55.749Z,30.80
2022-07-25T07:09:23.593Z,30.70
2022-07-25T07:11:51.456Z,30.80
2022-07-25T07:14:20.661Z,31.00
2022-07-25T07:16:48.474Z,31.00
2022-07-25T07:19:18.047Z,30.70
2022-07-25T07:21:46.028Z,30.90
2022-07-25T07:24:24.262Z,31.20
2022-07-25T07:26:52.910Z,31.70
2022-07-25T07:29:22.581Z,31.60
2022-07-25T07:31:50.799Z,31.80
2022-07-25T07:34:18.933Z,31.60
2022-07-25T07:36:46.783Z,31.30
2022-07-25T07:39:16.549Z,31.60
2022-07-25T07:41:44.485Z,31.60
2022-07-25T07:44:12.408Z,31.40
2022-07-25T07:46:41.862Z,31.60
2022-07-25T07:49:10.530Z,31.90
2022-07-25T07:52:00.336Z,31.90
2022-07-25T07:54:46.128Z,31.40
2022-07-25T07:57:15.137Z,31.40
2022-07-25T07:59:43.088Z,31.80
2022-07-25T08:02:12.411Z,32.20
2022-07-25T08:04:40.287Z,32.40
2022-07-25T08:07:08.220Z,32.20
2022-07-25T08:09:36.086Z,31.90
2022-07-25T08:12:04.186Z,31.80
2022-07-25T08:14:32.924Z,32.20
2022-07-25T08:20:43.423Z,32.60
2022-07-25T08:23:12.014Z,33.00
2022-07-25T08:25:40.464Z,32.50
2022-07-25T08:28:08.367Z,32.90
2022-07-25T08:30:37.708Z,33.30
2022-07-25T08:33:08.033Z,33.00
2022-07-25T08:35:36.290Z,33.20
2022-07-25T08:38:06.545Z,33.70
2022-07-25T08:40:35.464Z,33.50
2022-07-25T08:43:03.273Z,33.20
2022-07-25T08:45:31.185Z,33.50
2022-07-25T08:47:59.005Z,33.60
2022-07-25T08:50:28.551Z,33.00
2022-07-25T08:53:16.668Z,33.10
2022-07-25T08:55:46.710Z,32.90
2022-07-25T08:58:16.748Z,32.70
2022-07-25T09:00:45.721Z,33.00
2022-07-25T09:07:06.236Z,32.60
2022-07-25T09:09:38.263Z,32.50
2022-07-25T09:12:35.466Z,32.30
2022-07-25T09:15:09.326Z,32.70
2022-07-25T09:17:39.654Z,32.90
2022-07-25T09:20:09.580Z,33.50
2022-07-25T09:22:45.360Z,33.30
2022-07-25T09:25:27.310Z,33.40
2022-07-25T09:27:57.298Z,33.40
2022-07-25T09:30:25.167Z,33.70
2022-07-25T09:33:01.511Z,34.00
2022-07-25T09:35:33.617Z,34.30
2022-07-25T09:38:13.457Z,34.00
2022-07-25T09:40:42.069Z,34.20
2022-07-25T09:44:14.624Z,34.10
2022-07-25T09:46:44.336Z,34.50
2022-07-25T09:49:14.474Z,34.40
2022-07-25T09:51:42.920Z,33.60
2022-07-25T09:54:10.962Z,33.80
2022-07-25T09:56:38.942Z,33.90
2022-07-25T09:59:07.080Z,34.20
2022-07-25T10:01:38.084Z,33.80
2022-07-25T10:04:17.460Z,34.20
2022-07-25T10:06:51.658Z,34.40
2022-07-25T10:09:19.941Z,33.90
2022-07-25T10:12:09.418Z,33.90
2022-07-25T10:14:38.869Z,34.00
2022-07-25T10:17:08.915Z,33.90
2022-07-25T10:19:49.187Z,34.50
2022-07-25T10:22:34.417Z,34.40
2022-07-25T10:25:13.917Z,34.10
2022-07-25T10:27:44.709Z,34.90
2022-07-25T10:30:21.199Z,35.40
2022-07-25T10:32:57.397Z,35.20
2022-07-25T10:35:27.830Z,34.90
2022-07-25T10:37:57.589Z,34.80
2022-07-25T10:40:30.834Z,34.70
2022-07-25T10:43:02.806Z,35.00
2022-07-25T10:45:40.363Z,35.30
2022-07-25T10:48:09.462Z,34.80
2022-07-25T10:50:55.854Z,34.90
2022-07-25T10:53:35.151Z,34.90
2022-07-25T10:56:08.842Z,34.30
2022-07-25T10:58:48.578Z,34.40
2022-07-25T11:01:21.686Z,34.20
2022-07-25T11:03:49.978Z,34.20
2022-07-25T11:06:31.381Z,34.10
2022-07-25T11:09:01.506Z,34.20
2022-07-25T11:11:37.709Z,34.50
2022-07-25T11:14:06.627Z,34.50
2022-07-25T11:16:34.598Z,34.60
2022-07-25T11:19:02.442Z,34.90
2022-07-25T11:21:31.949Z,35.00
2022-07-25T11:23:59.706Z,35.00
2022-07-25T11:26:27.503Z,35.20
2022-07-25T11:28:55.267Z,35.20
2022-07-25T11:31:23.996Z,35.00
2022-07-25T11:33:52.070Z,34.90
2022-07-25T11:36:20.148Z,34.50
2022-07-25T11:38:50.534Z,34.70
2022-07-25T11:41:29.722Z,34.40
2022-07-25T11:43:57.625Z,34.30
2022-07-25T11:46:25.878Z,34.40
2022-07-25T11:49:05.663Z,34.70
2022-07-25T11:51:38.616Z,34.70
2022-07-25T11:54:13.143Z,34.70
2022-07-25T11:56:43.347Z,35.00
2022-07-25T11:59:12.194Z,34.70
2022-07-25T12:01:41.737Z,35.00
2022-07-25T12:04:12.445Z,35.30
2022-07-25T12:06:40.410Z,35.40
2022-07-25T12:09:18.540Z,35.60
2022-07-25T12:11:48.507Z,35.40
2022-07-25T12:14:16.603Z,35.60
2022-07-25T12:16:44.425Z,35.50
2022-07-25T12:19:20.393Z,35.50
2022-07-25T12:21:48.178Z,35.40
2022-07-25T12:24:17.293Z,35.30
2022-07-25T12:26:45.126Z,35.60
2022-07-25T12:29:12.882Z,35.70
2022-07-25T12:31:40.640Z,36.10
2022-07-25T12:34:08.410Z,36.00
2022-07-25T12:36:41.100Z,36.10
2022-07-25T12:39:09.259Z,36.40
2022-07-25T12:41:39.954Z,36.20
2022-07-25T12:44:07.734Z,36.00
2022-07-25T12:46:36.037Z,36.00
2022-07-25T12:49:04.325Z,36.00
2022-07-25T12:51:32.459Z,35.50
2022-07-25T12:54:00.211Z,35.20
2022-07-25T12:56:28.041Z,35.40
2022-07-25T12:58:57.235Z,35.40
2022-07-25T13:01:25.154Z,34.60
2022-07-25T13:03:52.971Z,34.30
2022-07-25T13:06:20.862Z,33.70
2022-07-25T13:08:48.708Z,33.30
2022-07-25T13:11:16.738Z,33.20
2022-07-25T13:13:44.499Z,33.40
2022-07-25T13:16:14.195Z,33.40
2022-07-25T13:18:41.985Z,33.80
2022-07-25T13:21:09.783Z,34.30
2022-07-25T13:23:37.753Z,34.30
2022-07-25T13:26:05.598Z,34.50
2022-07-25T13:28:37.327Z,34.40
2022-07-25T13:31:06.903Z,34.00
2022-07-25T13:33:36.215Z,33.50
2022-07-25T13:36:04.290Z,33.00
2022-07-25T13:38:34.608Z,33.10
2022-07-25T13:41:02.717Z,33.20
2022-07-25T13:43:30.539Z,33.10
2022-07-25T13:45:58.537Z,32.90
2022-07-25T13:48:29.929Z,32.70
2022-07-25T13:51:00.403Z,32.80
2022-07-25T13:53:30.543Z,32.40
2022-07-25T13:55:59.419Z,32.40
2022-07-25T13:58:27.381Z,32.90
2022-07-25T14:00:55.433Z,33.20
2022-07-25T14:03:23.350Z,32.90
2022-07-25T14:05:51.527Z,33.00
2022-07-25T14:08:20.676Z,33.20
2022-07-25T14:10:48.541Z,33.00
2022-07-25T14:13:16.299Z,33.20
2022-07-25T14:15:44.901Z,33.50
2022-07-25T14:18:12.707Z,33.30
2022-07-25T14:20:40.540Z,33.40
2022-07-25T14:23:08.354Z,33.80
2022-07-25T14:25:38.851Z,34.00
2022-07-25T14:28:06.693Z,33.90
2022-07-25T14:30:34.595Z,33.80
2022-07-25T14:33:03.345Z,33.60
2022-07-25T14:35:32.681Z,33.10
2022-07-25T14:38:00.810Z,33.20
2022-07-25T14:40:28.686Z,33.10
2022-07-25T14:42:57.828Z,33.10
2022-07-25T14:45:25.671Z,33.40
2022-07-25T14:47:53.968Z,33.50
2022-07-25T14:50:22.026Z,33.50
2022-07-25T14:52:49.761Z,33.80
2022-07-25T14:55:18.811Z,33.80
2022-07-25T14:57:46.614Z,33.90
2022-07-25T15:00:16.565Z,33.30
2022-07-25T15:02:44.653Z,33.10
2022-07-25T15:05:12.575Z,33.30
2022-07-25T15:07:40.497Z,33.80
2022-07-25T15:10:08.874Z,33.20
2022-07-25T15:12:36.712Z,32.80
2022-07-25T15:15:05.212Z,32.70
2022-07-25T15:17:34.633Z,32.50
2022-07-25T15:20:02.433Z,32.50
2022-07-25T15:22:30.389Z,32.60
2022-07-25T15:25:29.786Z,32.60
2022-07-25T15:27:46.186Z,32.60
2022-07-25T15:30:14.603Z,32.70
2022-07-25T15:32:43.701Z,33.00
2022-07-25T15:35:11.489Z,33.10
2022-07-25T15:37:39.266Z,33.20
2022-07-25T15:40:07.925Z,32.80
2022-07-25T15:42:36.175Z,33.00
2022-07-25T15:45:31.619Z,32.80
2022-07-25T15:47:53.265Z,32.10
2022-07-25T15:50:21.585Z,32.00
2022-07-25T15:52:49.754Z,32.10
2022-07-25T15:55:17.692Z,32.00
2022-07-25T15:57:45.499Z,32.10
2022-07-25T16:00:14.251Z,32.20
2022-07-25T16:02:42.019Z,32.00
2022-07-25T16:05:11.523Z,31.80
2022-07-25T16:07:39.667Z,31.60
2022-07-25T16:10:07.879Z,31.70
2022-07-25T16:12:35.759Z,32.10
2022-07-25T16:15:04.180Z,32.50
2022-07-25T16:17:33.095Z,32.20
2022-07-25T16:20:01.038Z,31.70
2022-07-25T16:22:30.267Z,31.50
2022-07-25T16:25:01.076Z,31.30
2022-07-25T16:27:28.979Z,31.40
2022-07-25T16:29:57.785Z,31.70
2022-07-25T16:32:25.941Z,31.70
2022-07-25T16:34:53.746Z,31.40
2022-07-25T16:37:21.926Z,31.10
2022-07-25T16:39:51.067Z,31.00
2022-07-25T16:42:18.831Z,30.70
2022-07-25T16:44:47.756Z,30.40
2022-07-25T16:47:15.609Z,30.20
2022-07-25T16:49:43.389Z,29.90
2022-07-25T16:52:11.143Z,29.80
2022-07-25T16:54:38.894Z,30.00
2022-07-25T16:57:08.821Z,30.20
2022-07-25T16:59:36.628Z,30.40
2022-07-25T17:02:04.726Z,30.10
2022-07-25T17:04:33.483Z,30.10
2022-07-25T17:07:01.978Z,29.80
2022-07-25T17:09:29.779Z,29.80
2022-07-25T17:11:57.954Z,29.80
2022-07-25T17:14:30.168Z,29.80
2022-07-25T17:16:58.674Z,29.50
2022-07-25T17:19:26.744Z,29.40
2022-07-25T17:21:54.553Z,29.20
2022-07-25T17:24:22.304Z,29.00
2022-07-25T17:26:50.383Z,29.20
2022-07-25T17:29:18.161Z,29.10
2022-07-25T17:31:47.397Z,29.00
2022-07-25T17:34:15.200Z,29.30
2022-07-25T17:36:43.817Z,29.20
2022-07-25T17:39:11.570Z,29.30
2022-07-25T17:41:39.368Z,29.20
2022-07-25T17:44:11.605Z,29.00
2022-07-25T17:46:40.109Z,28.90
2022-07-25T17:49:09.308Z,28.90
2022-07-25T17:51:37.223Z,29.00
2022-07-25T17:54:05.880Z,29.30
2022-07-25T17:56:34.335Z,29.40
2022-07-25T17:59:02.839Z,29.50
2022-07-25T18:01:30.682Z,29.70
2022-07-25T18:03:58.739Z,29.80
2022-07-25T18:06:29.973Z,29.60
2022-07-25T18:08:58.198Z,29.50
2022-07-25T18:11:26.314Z,29.70
2022-07-25T18:13:54.094Z,29.30
2022-07-25T18:16:21.963Z,28.90
2022-07-25T18:18:49.787Z,28.80
2022-07-25T18:21:17.591Z,28.50
2022-07-25T18:23:46.686Z,28.40
2022-07-25T18:26:14.474Z,28.20
2022-07-25T18:28:42.254Z,27.90
2022-07-25T18:31:10.384Z,27.70
2022-07-25T18:33:38.406Z,27.40
2022-07-25T18:36:07.684Z,27.10
2022-07-25T18:38:36.567Z,26.80
2022-07-25T18:41:28.116Z,26.60
2022-07-25T18:43:54.303Z,26.50
2022-07-25T18:46:22.270Z,26.30
2022-07-25T18:48:51.189Z,26.30
2022-07-25T18:51:19.078Z,26.10
2022-07-25T18:53:48.560Z,25.90
2022-07-25T18:56:18.223Z,25.90
2022-07-25T18:58:46.225Z,25.80
2022-07-25T19:01:14.541Z,25.70
2022-07-25T19:03:42.339Z,25.60
2022-07-25T19:06:10.712Z,25.50
2022-07-25T19:08:38.748Z,25.40
2022-07-25T19:11:06.597Z,25.30
2022-07-25T19:13:49.513Z,25.20
2022-07-25T19:16:18.394Z,25.10
2022-07-25T19:18:46.258Z,25.10
2022-07-25T19:21:14.400Z,25.00
2022-07-25T19:23:45.720Z,24.90
2022-07-25T19:26:17.797Z,24.80
2022-07-25T19:28:47.190Z,24.80
2022-07-25T19:31:15.187Z,24.70
2022-07-25T19:33:45.421Z,24.60
2022-07-25T19:36:13.625Z,24.50
2022-07-25T19:38:41.386Z,24.40
2022-07-25T19:41:09.504Z,24.40
2022-07-25T19:43:37.268Z,24.30
2022-07-25T19:46:06.525Z,24.20
2022-07-25T19:48:34.627Z,24.20
2022-07-25T19:51:02.502Z,24.20
2022-07-25T19:53:30.430Z,24.10
2022-07-25T19:55:58.184Z,24.00
2022-07-25T19:58:26.018Z,24.00
2022-07-25T20:00:53.984Z,23.90
2022-07-25T20:03:23.777Z,23.80
2022-07-25T20:05:51.980Z,23.80
2022-07-25T20:08:19.800Z,23.70
2022-07-25T20:10:48.316Z,23.50
2022-07-25T20:13:16.258Z,23.40
2022-07-25T20:15:44.127Z,23.30
2022-07-25T20:18:17.469Z,23.20
2022-07-25T20:20:48.995Z,23.20
2022-07-25T20:23:16.799Z,23.20
2022-07-25T20:25:44.680Z,23.10
2022-07-25T20:28:12.698Z,23.00
2022-07-25T20:30:41.051Z,23.00
2022-07-25T20:33:09.905Z,22.90
2022-07-25T20:35:39.227Z,22.80
2022-07-25T20:38:09.741Z,22.90
2022-07-25T20:40:38.876Z,22.80
2022-07-25T20:43:09.010Z,22.80
2022-07-25T20:45:37.451Z,22.70
2022-07-25T20:48:05.648Z,22.60
2022-07-25T20:50:33.565Z,22.50
2022-07-25T20:53:01.326Z,22.40
2022-07-25T20:55:31.290Z,22.30
2022-07-25T20:57:59.515Z,22.20
2022-07-25T21:00:28.741Z,22.20
2022-07-25T21:02:56.651Z,22.10
2022-07-25T21:05:24.760Z,22.00
2022-07-25T21:07:52.767Z,22.00
2022-07-25T21:10:21.217Z,22.00
2022-07-25T21:12:50.339Z,21.90
2022-07-25T21:15:18.562Z,21.90
2022-07-25T21:17:46.323Z,22.10
2022-07-25T21:20:15.388Z,22.20
2022-07-25T21:22:43.896Z,22.30
2022-07-25T21:25:11.999Z,22.70
2022-07-25T21:27:40.196Z,23.00
2022-07-25T21:30:11.196Z,22.80
2022-07-25T21:32:40.356Z,22.40
2022-07-25T21:35:08.916Z,22.20
2022-07-25T21:37:36.782Z,22.10
2022-07-25T21:40:05.752Z,22.20
2022-07-25T21:42:33.648Z,22.50
2022-07-25T21:45:01.411Z,22.40
2022-07-25T21:47:30.509Z,22.30
2022-07-25T21:50:19.303Z,22.10
2022-07-25T21:52:52.976Z,21.70
2022-07-25T21:55:21.520Z,21.50
2022-07-25T21:57:49.466Z,21.70
2022-07-25T22:00:17.754Z,21.60
2022-07-25T22:02:47.674Z,21.60
2022-07-25T22:05:17.217Z,21.50
2022-07-25T22:07:46.708Z,21.50
2022-07-25T22:10:16.440Z,21.50
2022-07-25T22:12:44.459Z,21.60
2022-07-25T22:15:13.798Z,21.50
2022-07-25T22:17:49.052Z,21.80
2022-07-25T22:20:19.844Z,21.90
2022-07-25T22:22:47.708Z,22.00
2022-07-25T22:25:16.220Z,21.80
2022-07-25T22:27:44.337Z,21.50
2022-07-25T22:30:18.322Z,21.40
2022-07-25T22:32:47.668Z,21.40
2022-07-25T22:35:15.482Z,21.40
2022-07-25T22:37:44.631Z,21.50
2022-07-25T22:40:14.630Z,22.00
2022-07-25T22:42:42.565Z,22.30
2022-07-25T22:45:11.316Z,22.50
2022-07-25T22:47:39.085Z,22.40
2022-07-25T22:50:08.475Z,22.20
2022-07-25T22:52:36.229Z,22.40
2022-07-25T22:55:05.853Z,22.40
2022-07-25T22:57:36.801Z,22.60
2022-07-25T23:00:07.433Z,22.10
2022-07-25T23:02:35.454Z,21.70
2022-07-25T23:05:03.644Z,22.00
2022-07-25T23:07:31.394Z,22.20
2022-07-25T23:09:59.175Z,22.40
2022-07-25T23:12:28.829Z,22.50
2022-07-25T23:14:56.603Z,22.20
2022-07-25T23:17:24.714Z,21.80
2022-07-25T23:19:54.095Z,21.90
2022-07-25T23:22:23.743Z,21.90
2022-07-25T23:24:51.762Z,21.80
2022-07-25T23:27:19.545Z,21.60
2022-07-25T23:29:48.614Z,21.80
2022-07-25T23:32:16.406Z,21.80
2022-07-25T23:34:44.619Z,21.80
2022-07-25T23:37:12.386Z,21.30
2022-07-25T23:39:40.132Z,21.70
2022-07-25T23:42:08.061Z,22.10
2022-07-25T23:44:36.572Z,22.40
2022-07-25T23:47:10.215Z,22.50
2022-07-25T23:49:38.735Z,22.50
2022-07-25T23:52:06.705Z,22.10
2022-07-25T23:54:34.824Z,22.20
2022-07-25T23:57:03.131Z,22.10
2022-07-25T23:59:31.207Z,21.60
